Time;durP1;ratioP1;P1;durP2;ratioP2;P2;SDS_P1;SDS_P2;PMS_P1;PMS_P2;Temp;Humidity;BMP_temperature;BMP_pressure;BME280_temperature;BME280_humidity;BME280_pressure;Samples;Min_cycle;Max_cycle;Signal;HPM_P1;HPM_P2
2023/05/23 00:02:12;;;;;;;37.75;18.70;;;;;;;;;;5066629;28;20048;-73
2023/05/23 00:04:38;;;;;;;46.28;17.27;;;;;;;;;;5063729;28;20093;-73
2023/05/23 00:07:04;;;;;;;40.08;16.35;;;;;;;;;;5050604;28;20182;-73
2023/05/23 00:09:30;;;;;;;42.78;16.00;;;;;;;;;;5068026;28;20044;-73
2023/05/23 00:11:57;;;;;;;43.15;14.60;;;;;;;;;;5059286;28;20045;-73
2023/05/23 00:14:23;;;;;;;32.15;13.93;;;;;;;;;;5059017;28;20661;-73
2023/05/23 00:16:50;;;;;;;26.00;12.73;;;;;;;;;;5076413;27;20059;-73
2023/05/23 00:19:16;;;;;;;24.42;12.52;;;;;;;;;;5057901;28;20063;-73
2023/05/23 00:21:44;;;;;;;35.67;13.82;;;;;;;;;;5059076;28;20048;-74
2023/05/23 00:24:10;;;;;;;25.63;14.02;;;;;;;;;;5058772;28;20044;-73
2023/05/23 00:26:37;;;;;;;28.45;14.52;;;;;;;;;;5055292;28;20052;-73
2023/05/23 00:29:03;;;;;;;25.48;15.07;;;;;;;;;;5062838;28;20048;-73
2023/05/23 00:31:30;;;;;;;29.92;15.73;;;;;;;;;;5058012;28;20043;-73
2023/05/23 00:33:56;;;;;;;34.50;16.90;;;;;;;;;;5053343;28;20603;-73
2023/05/23 00:36:22;;;;;;;34.33;16.42;;;;;;;;;;5052357;28;20140;-73
2023/05/23 00:38:48;;;;;;;33.25;16.27;;;;;;;;;;5055650;28;20097;-73
2023/05/23 00:41:17;;;;;;;35.25;18.35;;;;;;;;;;5054060;28;22112;-73
2023/05/23 00:43:43;;;;;;;40.08;19.80;;;;;;;;;;5042696;28;20071;-74
2023/05/23 00:46:10;;;;;;;36.50;19.23;;;;;;;;;;5057723;28;20201;-73
2023/05/23 00:48:37;;;;;;;38.78;18.25;;;;;;;;;;5054307;28;20067;-73
2023/05/23 00:51:03;;;;;;;33.45;19.20;;;;;;;;;;5055861;28;20263;-73
2023/05/23 00:53:30;;;;;;;32.28;18.92;;;;;;;;;;5048369;28;20562;-73
2023/05/23 00:55:56;;;;;;;35.83;17.55;;;;;;;;;;5046929;28;20044;-73
2023/05/23 00:58:22;;;;;;;30.60;17.48;;;;;;;;;;5056580;28;20036;-73
2023/05/23 01:00:49;;;;;;;25.52;16.60;;;;;;;;;;5039190;28;20037;-72
2023/05/23 01:03:16;;;;;;;32.83;17.70;;;;;;;;;;5058942;28;20044;-73
2023/05/23 01:05:43;;;;;;;27.48;16.50;;;;;;;;;;5057675;28;20069;-73
2023/05/23 01:08:09;;;;;;;28.00;15.30;;;;;;;;;;5060198;28;20042;-73
2023/05/23 01:10:36;;;;;;;25.00;14.50;;;;;;;;;;5058057;28;20130;-73
2023/05/23 01:13:08;;;;;;;28.02;13.93;;;;;;;;;;5053948;28;21208;-73
2023/05/23 01:15:52;;;;;;;24.15;13.32;;;;;;;;;;5053374;28;20186;-73
2023/05/23 01:18:33;;;;;;;21.90;13.07;;;;;;;;;;5054623;28;20044;-73
2023/05/23 01:21:03;;;;;;;17.33;10.32;;;;;;;;;;5055462;28;20048;-72
2023/05/23 01:23:44;;;;;;;20.15;11.32;;;;;;;;;;5051421;28;22143;-72
2023/05/23 01:26:26;;;;;;;20.27;11.63;;;;;;;;;;5051113;28;20384;-73
2023/05/23 01:28:55;;;;;;;20.33;11.70;;;;;;;;;;5052045;28;20036;-73
2023/05/23 01:31:22;;;;;;;19.65;10.43;;;;;;;;;;5050308;28;20048;-73
2023/05/23 01:33:49;;;;;;;16.77;10.85;;;;;;;;;;5052581;28;20048;-73
2023/05/23 01:36:15;;;;;;;21.02;9.13;;;;;;;;;;5050473;28;20400;-73
2023/05/23 01:38:41;;;;;;;17.02;9.35;;;;;;;;;;5049731;28;20070;-73
2023/05/23 01:41:07;;;;;;;18.30;9.80;;;;;;;;;;5051414;28;20123;-72
2023/05/23 01:43:34;;;;;;;20.80;9.75;;;;;;;;;;5023375;28;20040;-73
2023/05/23 01:46:00;;;;;;;19.35;9.23;;;;;;;;;;5049600;28;21650;-73
2023/05/23 01:48:27;;;;;;;19.60;9.20;;;;;;;;;;5052553;28;20048;-73
2023/05/23 01:50:55;;;;;;;18.70;7.53;;;;;;;;;;5051025;28;20170;-73
2023/05/23 01:53:23;;;;;;;14.20;7.47;;;;;;;;;;5050615;28;20098;-72
2023/05/23 01:55:49;;;;;;;16.23;7.30;;;;;;;;;;5050502;28;20049;-73
2023/05/23 01:58:16;;;;;;;23.45;8.30;;;;;;;;;;5050836;28;20131;-73
2023/05/23 02:00:42;;;;;;;16.88;7.45;;;;;;;;;;5048874;28;20051;-73
2023/05/23 02:03:08;;;;;;;17.00;7.72;;;;;;;;;;5050285;28;20387;-73
2023/05/23 02:05:34;;;;;;;17.15;6.70;;;;;;;;;;5072714;28;20619;-72
2023/05/23 02:08:01;;;;;;;16.95;7.10;;;;;;;;;;5054144;28;20461;-72
2023/05/23 02:10:27;;;;;;;19.63;7.30;;;;;;;;;;5052896;28;20145;-72
2023/05/23 02:12:53;;;;;;;30.25;8.23;;;;;;;;;;5056519;28;20131;-73
2023/05/23 02:15:19;;;;;;;20.75;8.18;;;;;;;;;;5053155;28;20048;-73
2023/05/23 02:17:47;;;;;;;22.52;7.88;;;;;;;;;;5036932;28;20235;-72
2023/05/23 02:20:13;;;;;;;21.70;8.13;;;;;;;;;;5052363;28;20047;-73
2023/05/23 02:22:39;;;;;;;19.02;8.27;;;;;;;;;;5054669;28;20071;-73
2023/05/23 02:25:05;;;;;;;21.85;8.23;;;;;;;;;;5049116;28;20039;-73
2023/05/23 02:27:32;;;;;;;23.95;8.57;;;;;;;;;;5059113;28;20154;-74
2023/05/23 02:29:58;;;;;;;28.70;8.88;;;;;;;;;;5064441;28;20064;-72
2023/05/23 02:32:24;;;;;;;25.77;9.50;;;;;;;;;;5054581;28;20081;-73
2023/05/23 02:34:51;;;;;;;25.48;8.02;;;;;;;;;;5055714;28;20048;-73
2023/05/23 02:37:17;;;;;;;28.02;8.50;;;;;;;;;;5052282;28;20043;-73
2023/05/23 02:39:43;;;;;;;27.13;7.75;;;;;;;;;;5052336;28;20649;-73
2023/05/23 02:42:09;;;;;;;23.50;8.57;;;;;;;;;;5054573;28;21187;-73
2023/05/23 02:44:35;;;;;;;14.48;6.72;;;;;;;;;;5069493;28;20535;-73
2023/05/23 02:47:01;;;;;;;15.18;6.75;;;;;;;;;;5068474;28;20052;-73
2023/05/23 02:49:28;;;;;;;18.80;6.65;;;;;;;;;;5056733;28;20193;-73
2023/05/23 02:51:54;;;;;;;18.45;7.35;;;;;;;;;;5067832;27;20525;-73
2023/05/23 02:54:20;;;;;;;24.98;8.45;;;;;;;;;;5054485;28;20125;-73
2023/05/23 02:56:46;;;;;;;26.00;9.50;;;;;;;;;;5052512;28;20594;-73
2023/05/23 02:59:12;;;;;;;24.40;10.23;;;;;;;;;;5054383;28;20060;-73
2023/05/23 03:01:38;;;;;;;23.33;9.50;;;;;;;;;;5052543;28;20786;-73
2023/05/23 03:04:04;;;;;;;17.30;7.05;;;;;;;;;;5049122;28;20044;-73
2023/05/23 03:06:32;;;;;;;15.73;7.47;;;;;;;;;;5049197;28;20766;-73
2023/05/23 03:08:59;;;;;;;19.35;7.13;;;;;;;;;;5051021;28;20052;-73
2023/05/23 03:11:25;;;;;;;17.15;6.78;;;;;;;;;;5049949;28;20241;-73
2023/05/23 03:13:51;;;;;;;12.00;5.93;;;;;;;;;;5051474;28;20718;-73
2023/05/23 03:16:17;;;;;;;19.33;6.53;;;;;;;;;;5052947;28;20040;-73
2023/05/23 03:18:43;;;;;;;19.10;6.60;;;;;;;;;;5032569;28;20293;-73
2023/05/23 03:21:09;;;;;;;19.73;7.47;;;;;;;;;;5057690;28;20036;-73
2023/05/23 03:23:35;;;;;;;28.92;8.45;;;;;;;;;;5051142;28;20674;-73
2023/05/23 03:26:02;;;;;;;26.88;7.82;;;;;;;;;;5049520;28;20370;-73
2023/05/23 03:28:30;;;;;;;27.13;8.57;;;;;;;;;;5052731;28;20131;-73
2023/05/23 03:30:57;;;;;;;26.58;7.88;;;;;;;;;;5051885;28;20072;-73
2023/05/23 03:33:23;;;;;;;28.95;7.95;;;;;;;;;;5069061;28;20106;-73
2023/05/23 03:35:50;;;;;;;16.85;7.82;;;;;;;;;;5053854;28;20044;-72
2023/05/23 03:38:16;;;;;;;21.08;8.05;;;;;;;;;;5051099;28;20102;-73
2023/05/23 03:40:42;;;;;;;21.00;8.05;;;;;;;;;;5052175;28;20056;-72
2023/05/23 03:43:08;;;;;;;25.45;8.40;;;;;;;;;;5056157;28;20059;-72
2023/05/23 03:45:34;;;;;;;23.08;7.80;;;;;;;;;;5056382;28;20067;-73
2023/05/23 03:48:00;;;;;;;24.70;8.02;;;;;;;;;;5075943;27;20191;-73
2023/05/23 03:50:27;;;;;;;22.70;7.70;;;;;;;;;;5060141;28;20089;-73
2023/05/23 03:52:53;;;;;;;26.05;7.72;;;;;;;;;;5060185;28;20150;-73
2023/05/23 03:55:22;;;;;;;24.52;7.47;;;;;;;;;;5061232;28;20040;-73
2023/05/23 03:57:50;;;;;;;22.27;8.10;;;;;;;;;;5075279;27;20686;-73
2023/05/23 04:00:17;;;;;;;29.50;7.65;;;;;;;;;;5041799;28;20048;-73
2023/05/23 04:02:45;;;;;;;20.45;6.97;;;;;;;;;;5038733;28;20048;-73
2023/05/23 04:05:11;;;;;;;17.48;6.85;;;;;;;;;;5058934;28;20036;-73
2023/05/23 04:07:37;;;;;;;21.15;7.25;;;;;;;;;;5054686;28;20040;-73
2023/05/23 04:10:03;;;;;;;16.90;7.10;;;;;;;;;;5069613;28;20036;-72
2023/05/23 04:12:30;;;;;;;22.92;7.18;;;;;;;;;;5052484;28;20044;-73
2023/05/23 04:14:59;;;;;;;16.48;6.30;;;;;;;;;;5059105;28;20048;-73
2023/05/23 04:17:29;;;;;;;23.98;6.53;;;;;;;;;;5059583;28;20435;-73
2023/05/23 04:19:55;;;;;;;22.55;5.95;;;;;;;;;;5058119;28;20056;-73
2023/05/23 04:22:21;;;;;;;23.08;5.28;;;;;;;;;;5060360;28;20553;-73
2023/05/23 04:24:47;;;;;;;15.50;4.78;;;;;;;;;;5059206;28;20044;-73
2023/05/23 04:27:14;;;;;;;18.60;5.55;;;;;;;;;;5060123;28;20233;-73
2023/05/23 04:29:40;;;;;;;21.40;6.07;;;;;;;;;;5057489;28;20552;-74
2023/05/23 04:32:07;;;;;;;16.77;4.97;;;;;;;;;;5060004;28;20043;-73
2023/05/23 04:34:33;;;;;;;20.30;5.47;;;;;;;;;;5058778;28;20040;-73
2023/05/23 04:37:03;;;;;;;22.35;6.68;;;;;;;;;;5056288;28;20036;-73
2023/05/23 04:39:29;;;;;;;15.80;4.78;;;;;;;;;;5057873;28;20054;-72
2023/05/23 04:41:56;;;;;;;18.75;4.53;;;;;;;;;;5055311;28;20048;-73
2023/05/23 04:44:29;;;;;;;21.05;5.80;;;;;;;;;;5056836;28;20504;-73
2023/05/23 04:46:55;;;;;;;17.73;4.53;;;;;;;;;;5053794;28;20079;-72
2023/05/23 04:49:22;;;;;;;20.67;5.20;;;;;;;;;;5042639;28;20182;-72
2023/05/23 04:51:48;;;;;;;30.33;6.25;;;;;;;;;;5054333;28;20047;-73
2023/05/23 04:54:14;;;;;;;22.13;4.20;;;;;;;;;;5070254;27;22653;-72
2023/05/23 04:56:40;;;;;;;21.30;5.18;;;;;;;;;;5052455;28;20044;-72
2023/05/23 04:59:07;;;;;;;14.95;3.45;;;;;;;;;;5050989;28;20138;-72
2023/05/23 05:01:33;;;;;;;20.20;4.68;;;;;;;;;;5057525;28;20832;-71
2023/05/23 05:03:59;;;;;;;19.98;4.30;;;;;;;;;;5035948;28;20070;-72
2023/05/23 05:06:27;;;;;;;14.13;4.97;;;;;;;;;;5056849;28;20468;-72
2023/05/23 05:08:53;;;;;;;19.17;4.93;;;;;;;;;;5059088;28;20075;-73
2023/05/23 05:11:19;;;;;;;23.17;6.10;;;;;;;;;;5057503;28;21797;-73
2023/05/23 05:13:45;;;;;;;21.77;6.78;;;;;;;;;;5073165;28;20085;-72
2023/05/23 05:16:11;;;;;;;20.60;6.88;;;;;;;;;;5041290;28;20127;-73
2023/05/23 05:18:39;;;;;;;30.45;7.47;;;;;;;;;;5059391;28;20510;-73
2023/05/23 05:21:05;;;;;;;17.40;6.35;;;;;;;;;;5057762;28;20491;-73
2023/05/23 05:23:32;;;;;;;35.20;7.57;;;;;;;;;;5058525;28;20040;-73
2023/05/23 05:25:59;;;;;;;29.17;8.40;;;;;;;;;;5059071;28;20098;-73
2023/05/23 05:28:25;;;;;;;24.30;7.90;;;;;;;;;;5041322;28;21439;-73
2023/05/23 05:30:53;;;;;;;23.45;8.13;;;;;;;;;;5058149;28;20043;-73
2023/05/23 05:33:22;;;;;;;25.13;7.53;;;;;;;;;;5041545;28;20044;-73
2023/05/23 05:35:50;;;;;;;29.48;7.60;;;;;;;;;;5058345;28;20048;-73
2023/05/23 05:38:16;;;;;;;20.08;6.80;;;;;;;;;;5040587;28;20132;-73
2023/05/23 05:40:42;;;;;;;20.88;8.38;;;;;;;;;;5059350;28;20047;-73
2023/05/23 05:43:09;;;;;;;18.83;6.63;;;;;;;;;;5066478;28;20083;-73
2023/05/23 05:45:35;;;;;;;20.25;5.43;;;;;;;;;;5063513;28;20127;-73
2023/05/23 05:48:01;;;;;;;17.52;5.60;;;;;;;;;;5061500;28;20563;-73
2023/05/23 05:50:27;;;;;;;15.65;6.82;;;;;;;;;;5076166;28;20048;-73
2023/05/23 05:52:53;;;;;;;14.95;6.15;;;;;;;;;;5058859;28;20055;-73
2023/05/23 05:55:19;;;;;;;16.73;6.47;;;;;;;;;;5061022;28;20436;-72
2023/05/23 05:57:46;;;;;;;19.85;5.97;;;;;;;;;;5059431;28;20047;-72
2023/05/23 06:00:17;;;;;;;16.42;5.53;;;;;;;;;;5060355;28;20159;-73
2023/05/23 06:02:45;;;;;;;22.73;5.25;;;;;;;;;;5062224;28;20081;-72
2023/05/23 06:05:12;;;;;;;16.48;5.28;;;;;;;;;;5057022;28;20052;-73
2023/05/23 06:07:38;;;;;;;21.65;5.55;;;;;;;;;;5060597;28;20044;-72
2023/05/23 06:10:05;;;;;;;10.50;3.80;;;;;;;;;;5061521;28;20082;-74
2023/05/23 06:12:31;;;;;;;13.18;4.80;;;;;;;;;;5061553;28;20089;-74
2023/05/23 06:14:57;;;;;;;12.45;4.45;;;;;;;;;;5060241;28;20859;-73
2023/05/23 06:17:23;;;;;;;13.02;4.75;;;;;;;;;;5041320;28;20047;-74
2023/05/23 06:19:49;;;;;;;8.77;3.60;;;;;;;;;;5055860;28;20080;-73
2023/05/23 06:22:15;;;;;;;15.32;3.75;;;;;;;;;;5058100;28;20040;-73
2023/05/23 06:24:41;;;;;;;13.52;3.45;;;;;;;;;;5073084;28;20051;-73
2023/05/23 06:27:07;;;;;;;14.80;4.18;;;;;;;;;;5057205;28;20668;-73
2023/05/23 06:29:35;;;;;;;12.98;4.07;;;;;;;;;;5056581;28;20051;-72
2023/05/23 06:32:01;;;;;;;16.25;4.40;;;;;;;;;;5058055;28;20167;-73
2023/05/23 06:34:28;;;;;;;22.67;5.45;;;;;;;;;;5057736;28;20094;-72
2023/05/23 06:36:54;;;;;;;18.58;3.75;;;;;;;;;;5057279;28;20479;-72
2023/05/23 06:39:20;;;;;;;21.30;3.78;;;;;;;;;;5045421;28;20051;-73
2023/05/23 06:41:47;;;;;;;19.27;4.43;;;;;;;;;;5054196;28;20059;-72
2023/05/23 06:44:13;;;;;;;18.00;3.75;;;;;;;;;;5049935;28;20143;-73
2023/05/23 06:46:39;;;;;;;14.27;4.40;;;;;;;;;;5052913;28;20062;-73
2023/05/23 06:49:05;;;;;;;34.17;5.35;;;;;;;;;;5053944;28;20538;-73
2023/05/23 06:51:31;;;;;;;25.33;5.18;;;;;;;;;;5055496;28;20672;-73
2023/05/23 06:53:57;;;;;;;19.20;4.85;;;;;;;;;;5071999;28;20852;-73
2023/05/23 06:56:24;;;;;;;17.05;4.15;;;;;;;;;;5056881;28;20043;-73
2023/05/23 06:58:50;;;;;;;21.95;4.35;;;;;;;;;;5036534;28;20048;-73
2023/05/23 07:01:16;;;;;;;23.77;5.72;;;;;;;;;;5054932;28;20062;-73
2023/05/23 07:03:44;;;;;;;24.88;5.35;;;;;;;;;;5056366;28;20066;-73
2023/05/23 07:06:11;;;;;;;23.40;5.07;;;;;;;;;;5055045;28;20527;-73
2023/05/23 07:08:37;;;;;;;22.38;4.32;;;;;;;;;;5056161;28;20052;-73
2023/05/23 07:11:03;;;;;;;22.50;4.28;;;;;;;;;;5053981;28;20460;-73
2023/05/23 07:13:29;;;;;;;26.33;5.75;;;;;;;;;;5056105;28;20050;-73
2023/05/23 07:15:55;;;;;;;32.88;4.90;;;;;;;;;;5059071;28;20044;-72
2023/05/23 07:18:22;;;;;;;22.23;4.35;;;;;;;;;;5061603;28;20952;-73
2023/05/23 07:20:49;;;;;;;14.55;4.07;;;;;;;;;;5059139;28;20233;-72
2023/05/23 07:23:15;;;;;;;19.67;3.65;;;;;;;;;;5059246;28;20048;-72
2023/05/23 07:25:41;;;;;;;28.17;4.68;;;;;;;;;;5058219;28;20064;-72
2023/05/23 07:28:08;;;;;;;24.80;4.68;;;;;;;;;;5062224;28;20055;-72
2023/05/23 07:30:34;;;;;;;20.40;4.20;;;;;;;;;;5063606;28;20160;-73
2023/05/23 07:33:00;;;;;;;30.17;4.63;;;;;;;;;;5074828;28;20112;-72
2023/05/23 07:35:26;;;;;;;22.15;4.65;;;;;;;;;;5083922;28;20081;-72
2023/05/23 07:37:53;;;;;;;21.70;4.00;;;;;;;;;;5077609;28;20123;-71
2023/05/23 07:40:19;;;;;;;21.38;4.20;;;;;;;;;;5067254;28;20086;-72
2023/05/23 07:42:45;;;;;;;18.80;3.97;;;;;;;;;;5072040;28;20048;-72
2023/05/23 07:45:11;;;;;;;13.52;3.60;;;;;;;;;;5083790;28;20119;-72
2023/05/23 07:47:37;;;;;;;24.95;4.68;;;;;;;;;;5066654;28;20048;-72
2023/05/23 07:50:04;;;;;;;31.10;5.13;;;;;;;;;;5080807;28;20058;-71
2023/05/23 07:52:30;;;;;;;22.10;3.85;;;;;;;;;;5062895;28;20048;-73
2023/05/23 07:54:57;;;;;;;27.38;4.32;;;;;;;;;;5062530;28;20059;-72
2023/05/23 07:57:23;;;;;;;17.38;4.20;;;;;;;;;;5063378;28;20135;-73
2023/05/23 07:59:52;;;;;;;26.13;4.55;;;;;;;;;;5062654;28;22052;-73
2023/05/23 08:02:19;;;;;;;28.17;5.53;;;;;;;;;;5079647;28;20078;-73
2023/05/23 08:04:46;;;;;;;21.75;4.22;;;;;;;;;;5062099;28;20063;-73
2023/05/23 08:07:12;;;;;;;24.80;4.20;;;;;;;;;;5045055;28;20086;-73
2023/05/23 08:09:41;;;;;;;17.92;4.25;;;;;;;;;;5061905;28;20043;-72
2023/05/23 08:12:08;;;;;;;25.23;5.60;;;;;;;;;;5062191;28;20502;-72
2023/05/23 08:14:35;;;;;;;22.40;4.57;;;;;;;;;;5078664;28;20167;-73
2023/05/23 08:17:01;;;;;;;23.65;4.50;;;;;;;;;;5061895;28;20055;-73
2023/05/23 08:19:27;;;;;;;22.35;4.72;;;;;;;;;;5062887;28;20036;-73
2023/05/23 08:21:53;;;;;;;24.00;5.30;;;;;;;;;;5061016;28;20154;-73
2023/05/23 08:24:20;;;;;;;23.02;7.63;;;;;;;;;;5061272;28;20049;-73
2023/05/23 08:26:46;;;;;;;28.75;5.10;;;;;;;;;;5062181;28;20073;-73
2023/05/23 08:29:13;;;;;;;16.75;4.03;;;;;;;;;;5044793;28;20117;-73
2023/05/23 08:31:39;;;;;;;19.42;5.18;;;;;;;;;;5062666;28;20045;-73
2023/05/23 08:34:05;;;;;;;19.83;4.18;;;;;;;;;;5063387;28;20048;-73
2023/05/23 08:36:33;;;;;;;21.08;4.85;;;;;;;;;;5060095;28;20048;-73
2023/05/23 08:38:59;;;;;;;19.13;4.20;;;;;;;;;;5061151;28;20040;-73
2023/05/23 08:41:28;;;;;;;19.70;4.22;;;;;;;;;;5044189;28;20143;-72
2023/05/23 08:43:54;;;;;;;22.40;5.03;;;;;;;;;;5060971;28;20054;-73
2023/05/23 08:46:22;;;;;;;26.45;4.50;;;;;;;;;;5062882;28;20048;-72
2023/05/23 08:48:53;;;;;;;18.27;4.40;;;;;;;;;;5061394;28;20047;-73
2023/05/23 08:51:20;;;;;;;23.13;4.07;;;;;;;;;;5062384;28;20044;-73
2023/05/23 08:53:47;;;;;;;27.00;5.10;;;;;;;;;;5061831;28;20044;-72
2023/05/23 08:56:14;;;;;;;16.85;4.22;;;;;;;;;;5060876;28;20122;-73
2023/05/23 08:58:43;;;;;;;18.92;5.20;;;;;;;;;;5061059;28;20535;-72
2023/05/23 09:01:10;;;;;;;18.17;4.03;;;;;;;;;;5063638;28;20048;-72
2023/05/23 09:03:36;;;;;;;26.58;4.47;;;;;;;;;;5062156;28;20415;-72
2023/05/23 09:06:03;;;;;;;24.90;4.72;;;;;;;;;;5062236;28;20485;-72
2023/05/23 09:08:29;;;;;;;20.33;4.20;;;;;;;;;;5059241;28;20048;-72
2023/05/23 09:10:56;;;;;;;21.60;4.07;;;;;;;;;;5062477;28;22102;-73
2023/05/23 09:13:22;;;;;;;22.75;5.07;;;;;;;;;;5062142;28;20136;-73
2023/05/23 09:16:00;;;;;;;22.58;3.83;;;;;;;;;;5063257;28;20044;-73
2023/05/23 09:18:26;;;;;;;15.75;3.90;;;;;;;;;;5059411;28;20050;-73
2023/05/23 09:20:52;;;;;;;18.30;4.13;;;;;;;;;;5061309;28;20075;-73
2023/05/23 09:23:19;;;;;;;24.23;5.15;;;;;;;;;;5062083;28;20377;-73
2023/05/23 09:25:46;;;;;;;24.77;4.75;;;;;;;;;;5043911;28;20051;-73
2023/05/23 09:28:12;;;;;;;21.88;4.25;;;;;;;;;;5061315;28;20052;-73
2023/05/23 09:30:38;;;;;;;13.52;3.30;;;;;;;;;;5078091;28;20396;-73
2023/05/23 09:33:04;;;;;;;21.33;4.63;;;;;;;;;;5060340;28;20044;-73
2023/05/23 09:35:31;;;;;;;16.23;3.65;;;;;;;;;;5063396;28;20045;-72
2023/05/23 09:37:58;;;;;;;24.38;4.85;;;;;;;;;;5060651;28;22086;-72
2023/05/23 09:40:28;;;;;;;26.73;4.13;;;;;;;;;;5059781;28;20040;-73
2023/05/23 09:42:54;;;;;;;21.00;4.57;;;;;;;;;;5075014;27;20080;-72
2023/05/23 09:45:21;;;;;;;27.10;4.75;;;;;;;;;;5059559;28;20523;-73
2023/05/23 09:47:50;;;;;;;20.70;4.05;;;;;;;;;;5059729;28;20055;-73
2023/05/23 09:50:17;;;;;;;22.40;4.30;;;;;;;;;;5060544;28;20050;-73
2023/05/23 09:52:43;;;;;;;17.67;4.20;;;;;;;;;;5076812;28;20135;-73
2023/05/23 09:55:10;;;;;;;13.30;3.92;;;;;;;;;;5063489;28;20040;-73
2023/05/23 09:57:38;;;;;;;22.15;4.65;;;;;;;;;;5060290;28;20097;-72
2023/05/23 10:00:05;;;;;;;24.52;4.80;;;;;;;;;;5060531;28;20044;-73
2023/05/23 10:02:52;;;;;;;15.25;3.72;;;;;;;;;;5060823;28;20048;-73
2023/05/23 10:05:24;;;;;;;17.23;3.38;;;;;;;;;;5059775;28;20045;-73
2023/05/23 10:07:50;;;;;;;24.90;4.38;;;;;;;;;;5058730;28;20490;-72
2023/05/23 10:10:17;;;;;;;17.10;3.72;;;;;;;;;;5059275;28;20895;-72
2023/05/23 10:12:51;;;;;;;22.75;4.43;;;;;;;;;;5059074;28;20160;-72
2023/05/23 10:15:17;;;;;;;;;;;;;;;;;;5059844;28;20052;-73
2023/05/23 10:18:04;;;;;;;19.20;4.70;;;;;;;;;;5059639;28;19931;-72
2023/05/23 10:20:31;;;;;;;18.98;3.50;;;;;;;;;;5059951;28;20044;-72
2023/05/23 10:23:00;;;;;;;17.95;3.90;;;;;;;;;;5058652;28;20048;-73
2023/05/23 10:25:26;;;;;;;22.63;3.97;;;;;;;;;;5062172;28;20046;-73
2023/05/23 10:28:00;;;;;;;21.70;4.75;;;;;;;;;;5059005;28;20032;-73
2023/05/23 10:30:27;;;;;;;25.67;4.43;;;;;;;;;;5067335;28;20155;-73
2023/05/23 10:32:54;;;;;;;21.10;5.22;;;;;;;;;;5062279;28;20127;-73
2023/05/23 10:35:38;;;;;;;19.30;4.10;;;;;;;;;;5060020;28;20101;-73
2023/05/23 10:38:23;;;;;;;16.67;3.75;;;;;;;;;;5058840;28;20742;-73
2023/05/23 10:40:50;;;;;;;18.70;4.20;;;;;;;;;;5057136;28;22110;-72
2023/05/23 10:43:30;;;;;;;17.23;3.97;;;;;;;;;;5060424;28;20045;-73
2023/05/23 10:45:56;;;;;;;22.70;5.97;;;;;;;;;;5065121;28;20357;-72
2023/05/23 10:48:36;;;;;;;21.73;4.40;;;;;;;;;;5076929;28;20048;-73
2023/05/23 10:51:06;;;;;;;31.42;4.57;;;;;;;;;;5068979;28;20048;-73
2023/05/23 10:53:35;;;;;;;29.35;4.80;;;;;;;;;;5066237;28;20512;-73
2023/05/23 10:56:01;;;;;;;22.55;4.05;;;;;;;;;;5068806;28;20094;-73
2023/05/23 10:58:29;;;;;;;15.02;3.85;;;;;;;;;;5074864;28;20044;-73
2023/05/23 11:01:13;;;;;;;15.48;3.80;;;;;;;;;;5077522;28;20040;-73
2023/05/23 11:03:39;;;;;;;;;;;;;;;;;;5085208;28;20048;-73
2023/05/23 11:06:05;;;;;;;22.33;3.97;;;;;;;;;;5059702;28;20410;-73
2023/05/23 11:08:42;;;;;;;21.73;3.75;;;;;;;;;;5058963;28;20044;-73
2023/05/23 11:11:08;;;;;;;22.33;5.03;;;;;;;;;;5060492;28;20047;-73
2023/05/23 11:13:53;;;;;;;14.95;3.45;;;;;;;;;;5060605;28;20044;-73
2023/05/23 11:16:39;;;;;;;23.85;4.32;;;;;;;;;;5058869;28;20044;-73
2023/05/23 11:19:17;;;;;;;20.42;4.63;;;;;;;;;;5060908;28;20569;-73
2023/05/23 11:21:44;;;;;;;27.80;4.63;;;;;;;;;;5061540;28;20043;-73
2023/05/23 11:24:10;;;;;;;23.83;3.80;;;;;;;;;;5074562;28;20539;-73
2023/05/23 11:26:36;;;;;;;21.13;4.05;;;;;;;;;;5079837;28;20051;-73
2023/05/23 11:29:03;;;;;;;20.10;4.43;;;;;;;;;;5075696;28;20060;-73
2023/05/23 11:31:29;;;;;;;16.50;3.40;;;;;;;;;;5077077;28;20126;-73
2023/05/23 11:33:55;;;;;;;18.25;3.65;;;;;;;;;;5062675;28;20052;-74
2023/05/23 11:36:22;;;;;;;19.98;4.13;;;;;;;;;;5060373;28;20122;-72
2023/05/23 11:38:52;;;;;;;15.48;3.28;;;;;;;;;;5052730;28;20048;-73
2023/05/23 11:41:18;;;;;;;21.20;3.72;;;;;;;;;;5059113;28;20040;-73
2023/05/23 11:43:51;;;;;;;14.80;3.38;;;;;;;;;;5058635;28;20102;-74
2023/05/23 11:46:17;;;;;;;25.10;4.75;;;;;;;;;;5058007;28;20673;-74
2023/05/23 11:48:49;;;;;;;20.63;4.00;;;;;;;;;;5056833;28;20036;-74
2023/05/23 11:51:15;;;;;;;19.23;3.75;;;;;;;;;;5059477;28;20045;-74
2023/05/23 11:53:42;;;;;;;20.70;4.03;;;;;;;;;;5058410;28;20036;-74
2023/05/23 11:56:08;;;;;;;16.15;3.33;;;;;;;;;;5058513;28;20052;-74
2023/05/23 11:58:38;;;;;;;21.05;4.18;;;;;;;;;;5059846;28;20059;-74
2023/05/23 12:01:06;;;;;;;16.50;3.45;;;;;;;;;;5056797;28;20982;-74
2023/05/23 12:03:33;;;;;;;15.40;3.60;;;;;;;;;;5061704;28;20058;-74
2023/05/23 12:06:03;;;;;;;9.13;2.90;;;;;;;;;;5064314;28;20131;-74
2023/05/23 12:08:29;;;;;;;12.40;2.60;;;;;;;;;;5059233;28;20062;-74
2023/05/23 12:11:00;;;;;;;11.10;2.45;;;;;;;;;;5060522;28;20142;-74
2023/05/23 12:13:29;;;;;;;12.32;3.53;;;;;;;;;;5060511;28;20510;-75
2023/05/23 12:15:56;;;;;;;11.85;2.83;;;;;;;;;;5058265;28;20174;-71
2023/05/23 12:18:22;;;;;;;17.88;3.58;;;;;;;;;;5059360;28;20052;-74
2023/05/23 12:20:50;;;;;;;21.35;4.53;;;;;;;;;;5057194;28;20041;-73
2023/05/23 12:23:23;;;;;;;20.15;4.93;;;;;;;;;;5055486;28;20098;-73
2023/05/23 12:25:49;;;;;;;17.20;3.13;;;;;;;;;;5057696;28;20067;-74
2023/05/23 12:28:15;;;;;;;24.85;3.58;;;;;;;;;;5048914;28;20045;-73
2023/05/23 12:30:42;;;;;;;19.45;3.78;;;;;;;;;;5048261;28;21088;-73
2023/05/23 12:33:09;;;;;;;13.80;3.72;;;;;;;;;;5054908;28;20067;-73
2023/05/23 12:35:35;;;;;;;16.10;3.90;;;;;;;;;;5069220;28;20047;-74
2023/05/23 12:38:01;;;;;;;16.52;3.58;;;;;;;;;;5048457;28;20185;-73
2023/05/23 12:40:28;;;;;;;23.90;4.20;;;;;;;;;;5057832;28;20810;-73
2023/05/23 12:42:55;;;;;;;17.60;3.72;;;;;;;;;;5043831;28;20048;-73
2023/05/23 12:45:21;;;;;;;14.52;3.40;;;;;;;;;;5058791;28;20040;-73
2023/05/23 12:47:48;;;;;;;20.40;3.60;;;;;;;;;;5061838;28;20052;-73
2023/05/23 12:50:14;;;;;;;17.80;3.65;;;;;;;;;;5059562;28;20106;-73
2023/05/23 12:52:40;;;;;;;23.40;3.55;;;;;;;;;;5061100;28;20048;-74
2023/05/23 12:55:10;;;;;;;16.65;3.85;;;;;;;;;;5062031;28;20139;-73
2023/05/23 12:57:36;;;;;;;18.17;4.32;;;;;;;;;;5062562;28;20158;-72
2023/05/23 13:00:03;;;;;;;17.05;3.25;;;;;;;;;;5060789;28;20067;-73
2023/05/23 13:02:29;;;;;;;17.65;3.05;;;;;;;;;;5043963;28;20085;-73
2023/05/23 13:04:55;;;;;;;15.80;3.78;;;;;;;;;;5077196;28;20041;-73
2023/05/23 13:07:22;;;;;;;18.20;3.95;;;;;;;;;;5062839;28;20075;-74
2023/05/23 13:09:48;;;;;;;21.80;3.13;;;;;;;;;;5060187;28;20154;-73
2023/05/23 13:12:15;;;;;;;23.02;3.60;;;;;;;;;;5058820;28;20048;-73
2023/05/23 13:14:41;;;;;;;15.88;3.25;;;;;;;;;;5059905;28;20127;-73
2023/05/23 13:17:07;;;;;;;19.27;4.38;;;;;;;;;;5058200;28;20046;-73
2023/05/23 13:19:36;;;;;;;14.63;3.53;;;;;;;;;;5058407;28;20059;-72
2023/05/23 13:22:03;;;;;;;16.55;4.03;;;;;;;;;;5058351;28;20094;-73
2023/05/23 13:24:29;;;;;;;15.75;3.40;;;;;;;;;;5065144;28;20048;-73
2023/05/23 13:26:55;;;;;;;17.50;3.22;;;;;;;;;;5059876;28;20036;-73
2023/05/23 13:29:21;;;;;;;15.60;2.90;;;;;;;;;;5042546;28;20090;-74
2023/05/23 13:31:48;;;;;;;16.13;3.08;;;;;;;;;;5060600;28;20093;-72
2023/05/23 13:34:14;;;;;;;18.23;3.80;;;;;;;;;;5074146;28;20036;-73
2023/05/23 13:36:40;;;;;;;14.70;3.67;;;;;;;;;;5065753;28;20066;-73
2023/05/23 13:39:06;;;;;;;16.33;3.47;;;;;;;;;;5057338;28;20083;-73
2023/05/23 13:41:32;;;;;;;13.85;3.67;;;;;;;;;;5041407;28;20059;-73
2023/05/23 13:43:58;;;;;;;23.98;3.80;;;;;;;;;;5078254;27;20496;-74
2023/05/23 13:46:24;;;;;;;15.75;3.10;;;;;;;;;;5061560;28;20186;-73
2023/05/23 13:48:50;;;;;;;16.05;3.00;;;;;;;;;;5057398;28;20050;-73
2023/05/23 13:51:16;;;;;;;15.52;3.28;;;;;;;;;;5059595;28;20172;-73
2023/05/23 13:53:42;;;;;;;14.20;2.90;;;;;;;;;;5057883;28;20044;-74
2023/05/23 13:56:09;;;;;;;20.60;3.78;;;;;;;;;;5072697;28;20132;-74
2023/05/23 13:58:35;;;;;;;18.88;3.92;;;;;;;;;;5046816;28;20051;-74
2023/05/23 14:01:01;;;;;;;18.75;3.38;;;;;;;;;;5050253;28;20679;-73
2023/05/23 14:03:27;;;;;;;16.83;3.33;;;;;;;;;;5050790;28;20529;-74
2023/05/23 14:05:53;;;;;;;14.50;4.13;;;;;;;;;;5032513;28;20097;-74
2023/05/23 14:08:19;;;;;;;19.58;4.10;;;;;;;;;;5050083;28;20058;-74
2023/05/23 14:10:45;;;;;;;17.27;3.70;;;;;;;;;;5051998;28;20056;-74
2023/05/23 14:13:12;;;;;;;18.75;3.17;;;;;;;;;;5053817;28;20067;-74
2023/05/23 14:15:38;;;;;;;19.85;3.50;;;;;;;;;;5047976;28;20075;-74
2023/05/23 14:18:07;;;;;;;14.20;3.10;;;;;;;;;;5057654;28;20044;-74
2023/05/23 14:20:33;;;;;;;14.38;3.83;;;;;;;;;;5048672;28;20090;-75
2023/05/23 14:23:00;;;;;;;17.58;3.60;;;;;;;;;;5051965;28;20059;-74
2023/05/23 14:25:26;;;;;;;18.02;3.17;;;;;;;;;;5047862;28;20480;-74
2023/05/23 14:27:52;;;;;;;13.93;3.08;;;;;;;;;;5051454;28;20037;-74
2023/05/23 14:30:18;;;;;;;12.18;3.67;;;;;;;;;;5051445;28;20043;-74